Main page
METAR-TAF:

METAR-TAF

Airports :

Kokkola-Pietarsaari Airport

Kokkola, Finland

latitude: 63-43N, longitude: 023-09E, elevation: 25 m

Current weather observation

The report was made 33 minutes ago, at 22:50 UTC
Wind 12 kt from the South, varying between South/Southeast and Southwest
Temperature 4°C
Humidity 87%
Pressure 973 hPa
Visibility 10 km or more
Overcast at a height of 1200 ft
light rain

METAR: EFKK 172250Z AUTO 19012KT 160V220 9999 -RA OVC012 04/02 Q0973

Time: 01:23 (23:23 UTC)

Forecast

The report was made 31 minutes ago, at 22:52 UTC
Forecast valid from 17 at 22 UTC to 17 at 24 UTC
Wind 12 kt from the South
Visibility 10 km or more
Broken clouds at a height of 3000 ft
Temporary
from 17 at 22 UTC to 17 at 24 UTC
Wind 15 kt from the South/Southwest with gusts up to 25 kt
Broken clouds at a height of 1200 ft

TAF: EFKK 172252Z 1722/1724 19012KT 9999 BKN030 TEMPO 1722/1724 20015G25KT BKN012

Weather observations and forecasts of more than 4000 airports (METAR and TAF reports).

The available stations are represented by yellow and red dots on the map.

Hover mouse over dot to see the name of the station.

Then click to see weather observations and forecasts.

To change the map : click on the green buttons with a black cross to zoom in, on the green button with a dash to zoom out, or on the green arrows for adjacent maps.


METAR-TAF: